Terminal Aerodrome Forecast
Issued by NWS Spokane, WA

Home | Current Version | Previous Version | Text Only | Print | Product List | Glossary On
Versions: 1 2 3 4 5 6 7 8 9 10 11 12 13 14 15 16 17 18 19 20 21 22 23 24 25 26 27 28 29 30 31 32 33 34 35 36 37
000
FTUS46 KOTX 212330
TAFEAT
TAF
KEAT 212330Z 2200/2224 VRB04KT P6SM FEW070 SCT120
     FM220500 VRB03KT P6SM VCSH SCT050 BKN070 OVC100
     FM221300 08003KT P6SM -RA SCT030 BKN050 OVC080
     FM221500 10003KT 6SM -RA BR BKN030 OVC050=

USA.gov is the U.S. government's official web portal to all federal, state and local government web resources and services.